createdAt,value
2018-01-24T00:00:36.559Z,1008.31
2018-01-24T00:01:37.983Z,1008.40
2018-01-24T00:02:39.400Z,1008.44
2018-01-24T00:03:40.813Z,1008.48
2018-01-24T00:04:42.226Z,1008.42
2018-01-24T00:05:43.696Z,1008.45
2018-01-24T00:06:45.105Z,1008.38
2018-01-24T00:07:46.527Z,1008.43
2018-01-24T00:08:47.955Z,1008.45
2018-01-24T00:09:49.374Z,1008.44
2018-01-24T00:10:50.787Z,1008.43
2018-01-24T00:11:52.204Z,1008.33
2018-01-24T00:12:53.678Z,1008.26
2018-01-24T00:13:55.092Z,1008.30
2018-01-24T00:14:56.510Z,1008.38
2018-01-24T00:15:57.919Z,1008.31
2018-01-24T00:16:59.346Z,1008.36
2018-01-24T00:18:00.762Z,1008.23
2018-01-24T00:19:02.255Z,1008.24
2018-01-24T00:20:03.672Z,1008.24
2018-01-24T00:21:05.088Z,1008.26
2018-01-24T00:22:06.504Z,1008.31
2018-01-24T00:23:07.940Z,1008.21
2018-01-24T00:24:09.349Z,1008.25
2018-01-24T00:25:10.771Z,1008.19
2018-01-24T00:26:12.286Z,1008.15
2018-01-24T00:27:13.727Z,1008.15
2018-01-24T00:28:15.138Z,1008.09
2018-01-24T00:29:16.549Z,1008.05
2018-01-24T00:30:17.970Z,1008.10
2018-01-24T00:31:19.385Z,1008.02
2018-01-24T00:32:20.795Z,1008.01
2018-01-24T00:33:22.210Z,1008.03
2018-01-24T00:34:23.666Z,1008.10
2018-01-24T00:35:25.082Z,1008.12
2018-01-24T00:36:26.502Z,1008.09
2018-01-24T00:37:27.925Z,1008.14
2018-01-24T00:38:29.357Z,1008.14
2018-01-24T00:39:30.770Z,1008.08
2018-01-24T00:40:32.194Z,1008.14
2018-01-24T00:41:33.603Z,1008.11
2018-01-24T00:42:35.022Z,1008.12
2018-01-24T00:43:36.439Z,1008.16
2018-01-24T00:44:37.858Z,1008.05
2018-01-24T00:45:39.326Z,1008.07
2018-01-24T00:46:40.682Z,1008.04
2018-01-24T00:47:42.103Z,1007.99
2018-01-24T00:48:43.508Z,1007.98
2018-01-24T00:49:44.929Z,1007.94
2018-01-24T00:50:46.337Z,1007.96
2018-01-24T00:51:47.753Z,1007.96
2018-01-24T00:52:49.170Z,1007.87
2018-01-24T00:53:50.594Z,1007.90
2018-01-24T00:54:52.007Z,1007.89
2018-01-24T00:55:53.435Z,1007.89
2018-01-24T00:56:54.853Z,1007.88
2018-01-24T00:57:56.272Z,1007.84
2018-01-24T00:58:57.779Z,1007.82
2018-01-24T00:59:59.196Z,1007.91
2018-01-24T01:01:00.625Z,1007.90
2018-01-24T01:02:02.046Z,1007.84
2018-01-24T01:03:03.462Z,1007.81
2018-01-24T01:04:04.871Z,1007.84
2018-01-24T01:05:06.293Z,1007.80
2018-01-24T01:06:07.791Z,1007.90
2018-01-24T01:07:09.211Z,1007.88
2018-01-24T01:08:10.623Z,1007.83
2018-01-24T01:09:12.058Z,1007.87
2018-01-24T01:10:13.481Z,1007.76
2018-01-24T01:11:14.899Z,1007.77
2018-01-24T01:12:16.316Z,1007.77
2018-01-24T01:13:17.743Z,1007.84
2018-01-24T01:14:19.202Z,1007.86
2018-01-24T01:15:20.604Z,1007.85
2018-01-24T01:16:22.023Z,1007.89
2018-01-24T01:17:23.437Z,1007.81
2018-01-24T01:18:24.855Z,1007.78
2018-01-24T01:19:26.274Z,1007.79
2018-01-24T01:20:27.734Z,1007.75
2018-01-24T01:21:29.148Z,1007.81
2018-01-24T01:22:30.569Z,1007.81
2018-01-24T01:23:31.997Z,1007.86
2018-01-24T01:24:33.414Z,1007.87
2018-01-24T01:25:34.825Z,1007.89
2018-01-24T01:26:36.251Z,1007.87
2018-01-24T01:27:37.664Z,1007.80
2018-01-24T01:28:39.085Z,1007.69
2018-01-24T01:29:40.498Z,1007.71
2018-01-24T01:30:41.915Z,1007.73
2018-01-24T01:31:43.344Z,1007.81
2018-01-24T01:32:44.752Z,1007.84
2018-01-24T01:33:46.210Z,1007.92
2018-01-24T01:34:47.634Z,1007.91
2018-01-24T01:35:49.052Z,1007.94
2018-01-24T01:36:50.462Z,1007.99
2018-01-24T01:37:51.871Z,1007.97
2018-01-24T01:38:53.284Z,1007.96
2018-01-24T01:39:54.704Z,1007.94
2018-01-24T01:40:56.183Z,1007.91
2018-01-24T01:41:57.601Z,1007.94
2018-01-24T01:42:59.017Z,1007.87
2018-01-24T01:44:00.430Z,1007.86
2018-01-24T01:45:01.853Z,1007.92
2018-01-24T01:46:03.272Z,1007.92
2018-01-24T01:47:04.677Z,1007.93
2018-01-24T01:48:06.094Z,1007.93
2018-01-24T01:49:07.515Z,1007.92
2018-01-24T01:50:08.939Z,1007.92
2018-01-24T01:51:10.356Z,1007.90
2018-01-24T01:52:11.779Z,1007.89
2018-01-24T01:53:13.221Z,1007.82
2018-01-24T01:54:14.640Z,1007.72
2018-01-24T01:55:16.056Z,1007.75
2018-01-24T01:56:17.475Z,1007.72
2018-01-24T01:57:18.888Z,1007.80
2018-01-24T01:58:20.325Z,1007.82
2018-01-24T01:59:21.737Z,1007.77
2018-01-24T02:00:23.165Z,1007.89
2018-01-24T02:01:24.579Z,1007.86
2018-01-24T02:02:26.006Z,1007.76
2018-01-24T02:03:27.413Z,1007.83
2018-01-24T02:04:28.830Z,1007.84
2018-01-24T02:05:30.245Z,1007.92
2018-01-24T02:06:31.803Z,1007.85
2018-01-24T02:07:33.231Z,1007.85
2018-01-24T02:08:34.643Z,1007.87
2018-01-24T02:09:36.050Z,1007.83
2018-01-24T02:10:37.472Z,1007.83
2018-01-24T02:11:38.891Z,1007.87
2018-01-24T02:12:40.313Z,1007.81
2018-01-24T02:13:41.733Z,1007.86
2018-01-24T02:14:43.151Z,1007.89
2018-01-24T02:15:44.573Z,1007.91
2018-01-24T02:16:45.991Z,1007.86
2018-01-24T02:17:47.410Z,1007.91
2018-01-24T02:18:48.829Z,1007.90
2018-01-24T02:19:50.249Z,1008.00
2018-01-24T02:20:51.766Z,1007.94
2018-01-24T02:21:53.186Z,1007.94
2018-01-24T02:22:54.606Z,1007.96
2018-01-24T02:23:56.021Z,1007.91
2018-01-24T02:24:57.447Z,1007.95
2018-01-24T02:25:58.869Z,1007.93
2018-01-24T02:27:00.289Z,1007.92
2018-01-24T02:28:01.704Z,1007.92
2018-01-24T02:29:03.120Z,1007.92
2018-01-24T02:30:04.538Z,1007.94
2018-01-24T02:31:05.963Z,1007.94
2018-01-24T02:32:07.374Z,1007.93
2018-01-24T02:33:08.798Z,1007.92
2018-01-24T02:34:10.239Z,1007.88
2018-01-24T02:35:11.654Z,1007.95
2018-01-24T02:36:13.069Z,1007.92
2018-01-24T02:37:14.488Z,1007.90
2018-01-24T02:38:15.916Z,1007.88
2018-01-24T02:39:17.335Z,1007.88
2018-01-24T02:40:18.759Z,1007.88
2018-01-24T02:41:20.210Z,1007.87
2018-01-24T02:42:21.611Z,1007.87
2018-01-24T02:43:23.029Z,1007.84
2018-01-24T02:44:24.455Z,1007.83
2018-01-24T02:45:25.863Z,1007.79
2018-01-24T02:46:27.271Z,1007.86
2018-01-24T02:47:28.689Z,1007.87
2018-01-24T02:48:30.196Z,1007.82
2018-01-24T02:49:31.606Z,1007.80
2018-01-24T02:50:33.021Z,1007.79
2018-01-24T02:51:34.440Z,1007.80
2018-01-24T02:52:35.859Z,1007.80
2018-01-24T02:53:37.273Z,1007.83
2018-01-24T02:54:38.688Z,1007.78
2018-01-24T02:55:40.115Z,1007.83
2018-01-24T02:56:41.538Z,1007.80
2018-01-24T02:57:42.950Z,1007.83
2018-01-24T02:58:44.362Z,1007.83
2018-01-24T02:59:45.779Z,1007.81
2018-01-24T03:00:47.191Z,1007.81
2018-01-24T03:01:48.608Z,1007.80
2018-01-24T03:02:50.031Z,1007.82
2018-01-24T03:03:51.447Z,1007.83
2018-01-24T03:04:52.866Z,1007.81
2018-01-24T03:05:54.288Z,1007.82
2018-01-24T03:06:55.712Z,1007.81
2018-01-24T03:07:57.134Z,1007.85
2018-01-24T03:08:58.544Z,1007.87
2018-01-24T03:09:59.956Z,1007.86
2018-01-24T03:11:01.369Z,1007.86
2018-01-24T03:12:02.785Z,1007.85
2018-01-24T03:13:04.216Z,1007.89
2018-01-24T03:14:05.640Z,1007.88
2018-01-24T03:15:07.053Z,1007.91
2018-01-24T03:16:08.468Z,1007.86
2018-01-24T03:17:09.883Z,1007.81
2018-01-24T03:18:11.298Z,1007.86
2018-01-24T03:19:13.721Z,1007.81
2018-01-24T03:20:15.140Z,1007.82
2018-01-24T03:21:16.551Z,1007.88
2018-01-24T03:22:17.961Z,1007.85
2018-01-24T03:23:19.377Z,1007.89
2018-01-24T03:24:20.803Z,1007.83
2018-01-24T03:25:22.208Z,1007.88
2018-01-24T03:26:23.623Z,1007.86
2018-01-24T03:27:25.042Z,1007.88
2018-01-24T03:28:26.457Z,1007.92
2018-01-24T03:29:27.879Z,1007.86
2018-01-24T03:30:29.297Z,1007.89
2018-01-24T03:31:30.702Z,1007.84
2018-01-24T03:32:32.122Z,1007.85
2018-01-24T03:33:33.603Z,1007.88
2018-01-24T03:34:35.017Z,1007.85
2018-01-24T03:35:36.436Z,1007.78
2018-01-24T03:36:37.860Z,1007.82
2018-01-24T03:37:39.284Z,1007.83
2018-01-24T03:38:40.692Z,1007.80
2018-01-24T03:39:42.109Z,1007.77
2018-01-24T03:40:43.536Z,1007.76
2018-01-24T03:41:44.960Z,1007.76
2018-01-24T03:42:46.369Z,1007.77
2018-01-24T03:43:47.787Z,1007.72
2018-01-24T03:44:49.209Z,1007.73
2018-01-24T03:45:50.624Z,1007.74
2018-01-24T03:46:52.036Z,1007.70
2018-01-24T03:47:53.450Z,1007.68
2018-01-24T03:48:54.869Z,1007.69
2018-01-24T03:49:56.283Z,1007.73
2018-01-24T03:50:57.723Z,1007.69
2018-01-24T03:51:59.156Z,1007.66
2018-01-24T03:53:00.577Z,1007.74
2018-01-24T03:54:01.998Z,1007.70
2018-01-24T03:55:03.410Z,1007.64
2018-01-24T03:56:04.823Z,1007.62
2018-01-24T03:57:06.243Z,1007.63
2018-01-24T03:58:07.664Z,1007.61
2018-01-24T03:59:09.083Z,1007.67
2018-01-24T04:00:10.610Z,1007.64
2018-01-24T04:01:12.034Z,1007.63
2018-01-24T04:02:13.446Z,1007.68
2018-01-24T04:03:14.858Z,1007.66
2018-01-24T04:04:16.271Z,1007.64
2018-01-24T04:05:17.685Z,1007.64
2018-01-24T04:06:19.169Z,1007.60
2018-01-24T04:07:20.568Z,1007.54
2018-01-24T04:08:21.986Z,1007.54
2018-01-24T04:09:23.411Z,1007.62
2018-01-24T04:10:24.831Z,1007.62
2018-01-24T04:11:26.249Z,1007.62
2018-01-24T04:12:27.668Z,1007.64
2018-01-24T04:13:29.089Z,1007.60
2018-01-24T04:14:30.512Z,1007.60
2018-01-24T04:15:31.931Z,1007.65
2018-01-24T04:16:33.339Z,1007.56
2018-01-24T04:17:34.758Z,1007.60
2018-01-24T04:18:36.174Z,1007.60
2018-01-24T04:19:37.547Z,1007.60
2018-01-24T04:20:38.972Z,1007.54
2018-01-24T04:21:40.384Z,1007.53
2018-01-24T04:22:41.801Z,1007.51
2018-01-24T04:23:43.224Z,1007.55
2018-01-24T04:24:44.639Z,1007.54
2018-01-24T04:25:46.105Z,1007.58
2018-01-24T04:26:47.537Z,1007.53
2018-01-24T04:27:48.955Z,1007.58
2018-01-24T04:28:50.367Z,1007.53
2018-01-24T04:29:51.779Z,1007.52
2018-01-24T04:30:53.193Z,1007.53
2018-01-24T04:31:54.616Z,1007.50
2018-01-24T04:32:56.123Z,1007.53
2018-01-24T04:33:57.534Z,1007.52
2018-01-24T04:34:58.939Z,1007.46
2018-01-24T04:36:00.378Z,1007.45
2018-01-24T04:37:01.794Z,1007.41
2018-01-24T04:38:03.223Z,1007.42
2018-01-24T04:39:04.664Z,1007.39
2018-01-24T04:40:06.078Z,1007.43
2018-01-24T04:41:07.494Z,1007.40
2018-01-24T04:42:08.900Z,1007.43
2018-01-24T04:43:10.321Z,1007.37
2018-01-24T04:44:11.739Z,1007.38
2018-01-24T04:45:13.157Z,1007.35
2018-01-24T04:46:14.588Z,1007.34
2018-01-24T04:47:16.001Z,1007.32
2018-01-24T04:48:17.426Z,1007.36
2018-01-24T04:49:18.847Z,1007.28
2018-01-24T04:50:20.275Z,1007.34
2018-01-24T04:51:21.694Z,1007.32
2018-01-24T04:52:23.115Z,1007.31
2018-01-24T04:53:24.534Z,1007.33
2018-01-24T04:54:25.951Z,1007.31
2018-01-24T04:55:27.376Z,1007.28
2018-01-24T04:56:28.785Z,1007.31
2018-01-24T04:57:30.943Z,1007.33
2018-01-24T04:58:32.355Z,1007.34
2018-01-24T04:59:33.784Z,1007.35
2018-01-24T05:00:35.196Z,1007.36
2018-01-24T05:01:36.618Z,1007.32
2018-01-24T05:02:38.045Z,1007.32
2018-01-24T05:03:39.458Z,1007.31
2018-01-24T05:04:40.971Z,1007.35
2018-01-24T05:05:42.391Z,1007.35
2018-01-24T05:06:43.805Z,1007.36
2018-01-24T05:07:45.228Z,1007.32
2018-01-24T05:08:46.659Z,1007.35
2018-01-24T05:09:48.077Z,1007.32
2018-01-24T05:10:49.492Z,1007.33
2018-01-24T05:11:50.907Z,1007.33
2018-01-24T05:12:52.334Z,1007.30
2018-01-24T05:13:53.752Z,1007.33
2018-01-24T05:14:55.160Z,1007.36
2018-01-24T05:15:56.577Z,1007.36
2018-01-24T05:16:57.994Z,1007.39
2018-01-24T05:17:59.409Z,1007.36
2018-01-24T05:19:00.834Z,1007.35
2018-01-24T05:20:02.250Z,1007.37
2018-01-24T05:21:03.658Z,1007.37
2018-01-24T05:22:05.078Z,1007.35
2018-01-24T05:23:06.504Z,1007.34
2018-01-24T05:24:07.917Z,1007.36
2018-01-24T05:25:09.439Z,1007.33
2018-01-24T05:26:10.847Z,1007.32
2018-01-24T05:27:12.269Z,1007.30
2018-01-24T05:28:13.677Z,1007.22
2018-01-24T05:29:15.102Z,1007.33
2018-01-24T05:30:16.517Z,1007.29
2018-01-24T05:31:17.939Z,1007.32
2018-01-24T05:32:19.351Z,1007.28
2018-01-24T05:33:20.730Z,1007.32
2018-01-24T05:34:22.145Z,1007.30
2018-01-24T05:35:23.555Z,1007.30
2018-01-24T05:36:24.968Z,1007.27
2018-01-24T05:37:26.389Z,1007.29
2018-01-24T05:38:28.636Z,1007.30
2018-01-24T05:39:30.044Z,1007.33
2018-01-24T05:40:31.461Z,1007.27
2018-01-24T05:41:32.876Z,1007.30
2018-01-24T05:42:34.337Z,1007.21
2018-01-24T05:43:35.753Z,1007.25
2018-01-24T05:44:37.169Z,1007.23
2018-01-24T05:45:38.587Z,1007.18
2018-01-24T05:46:40.002Z,1007.24
2018-01-24T05:47:41.419Z,1007.21
2018-01-24T05:48:42.847Z,1007.24
2018-01-24T05:49:44.270Z,1007.16
2018-01-24T05:50:45.694Z,1007.16
2018-01-24T05:51:47.103Z,1007.16
2018-01-24T05:52:48.520Z,1007.15
2018-01-24T05:53:49.937Z,1007.11
2018-01-24T05:54:51.361Z,1007.17
2018-01-24T05:55:52.767Z,1007.14
2018-01-24T05:56:54.326Z,1007.09
2018-01-24T05:57:55.735Z,1007.14
2018-01-24T05:58:57.168Z,1007.14
2018-01-24T05:59:58.577Z,1007.14
2018-01-24T06:01:00.000Z,1007.10
2018-01-24T06:02:01.416Z,1007.09
2018-01-24T06:03:02.836Z,1007.11
2018-01-24T06:04:04.252Z,1007.13
2018-01-24T06:05:05.671Z,1007.13
2018-01-24T06:06:07.089Z,1007.19
2018-01-24T06:07:08.501Z,1007.16
2018-01-24T06:08:09.912Z,1007.19
2018-01-24T06:09:11.328Z,1007.19
2018-01-24T06:10:12.750Z,1007.11
2018-01-24T06:11:14.170Z,1007.13
2018-01-24T06:12:15.589Z,1007.15
2018-01-24T06:13:17.004Z,1007.20
2018-01-24T06:14:18.430Z,1007.22
2018-01-24T06:15:19.904Z,1007.23
2018-01-24T06:16:21.323Z,1007.17
2018-01-24T06:17:22.737Z,1007.23
2018-01-24T06:18:24.211Z,1007.23
2018-01-24T06:19:25.583Z,1007.20
2018-01-24T06:20:27.009Z,1007.20
2018-01-24T06:21:28.438Z,1007.27
2018-01-24T06:22:30.602Z,1007.26
2018-01-24T06:23:32.022Z,1007.28
2018-01-24T06:24:33.432Z,1007.26
2018-01-24T06:25:34.852Z,1007.24
2018-01-24T06:26:36.263Z,1007.22
2018-01-24T06:27:37.688Z,1007.22
2018-01-24T06:28:39.151Z,1007.22
2018-01-24T06:29:40.558Z,1007.20
2018-01-24T06:30:41.968Z,1007.19
2018-01-24T06:31:43.385Z,1007.17
2018-01-24T06:32:44.803Z,1007.16
2018-01-24T06:33:46.222Z,1007.19
2018-01-24T06:34:47.643Z,1007.17
2018-01-24T06:35:49.065Z,1007.12
2018-01-24T06:36:50.478Z,1007.13
2018-01-24T06:37:51.891Z,1007.07
2018-01-24T06:38:53.307Z,1007.14
2018-01-24T06:39:54.722Z,1007.15
2018-01-24T06:40:56.167Z,1007.14
2018-01-24T06:41:57.584Z,1007.12
2018-01-24T06:42:59.003Z,1007.15
2018-01-24T06:44:00.416Z,1007.19
2018-01-24T06:45:01.864Z,1007.11
2018-01-24T06:46:03.280Z,1007.06
2018-01-24T06:47:04.689Z,1007.04
2018-01-24T06:48:06.108Z,1007.04
2018-01-24T06:49:07.527Z,1006.99
2018-01-24T06:50:08.941Z,1006.94
2018-01-24T06:51:10.352Z,1006.93
2018-01-24T06:52:11.765Z,1006.93
2018-01-24T06:53:13.194Z,1006.95
2018-01-24T06:54:14.614Z,1006.91
2018-01-24T06:55:16.034Z,1006.89
2018-01-24T06:56:17.453Z,1006.88
2018-01-24T06:57:18.863Z,1006.94
2018-01-24T06:58:20.288Z,1006.93
2018-01-24T06:59:21.700Z,1006.92
2018-01-24T07:00:23.114Z,1006.87
2018-01-24T07:01:24.536Z,1006.92
2018-01-24T07:02:25.952Z,1006.93
2018-01-24T07:03:27.380Z,1006.94
2018-01-24T07:04:28.797Z,1006.96
2018-01-24T07:05:30.218Z,1006.97
2018-01-24T07:06:31.692Z,1006.89
2018-01-24T07:07:33.115Z,1006.90
2018-01-24T07:08:34.531Z,1006.88
2018-01-24T07:09:35.954Z,1006.87
2018-01-24T07:10:37.359Z,1006.88
2018-01-24T07:11:38.777Z,1006.89
2018-01-24T07:12:40.204Z,1006.85
2018-01-24T07:13:41.613Z,1006.88
2018-01-24T07:14:43.028Z,1006.87
2018-01-24T07:15:44.446Z,1006.87
2018-01-24T07:16:45.867Z,1006.86
2018-01-24T07:17:47.282Z,1006.82
2018-01-24T07:18:48.691Z,1006.78
2018-01-24T07:19:50.120Z,1006.86
2018-01-24T07:20:51.546Z,1006.82
2018-01-24T07:21:52.956Z,1006.91
2018-01-24T07:22:54.758Z,1006.93
2018-01-24T07:23:56.167Z,1006.90
2018-01-24T07:24:57.586Z,1006.87
2018-01-24T07:25:59.002Z,1006.85
2018-01-24T07:27:00.420Z,1006.92
2018-01-24T07:28:01.846Z,1006.90
2018-01-24T07:29:03.268Z,1006.91
2018-01-24T07:30:04.680Z,1006.90
2018-01-24T07:31:06.108Z,1006.89
2018-01-24T07:32:07.526Z,1006.95
2018-01-24T07:33:08.949Z,1006.93
2018-01-24T07:34:10.381Z,1006.90
2018-01-24T07:35:11.803Z,1006.94
2018-01-24T07:36:13.233Z,1006.95
2018-01-24T07:37:14.653Z,1006.83
2018-01-24T07:38:16.073Z,1006.90
2018-01-24T07:39:17.491Z,1006.90
2018-01-24T07:40:18.911Z,1006.88
2018-01-24T07:41:20.336Z,1006.85
2018-01-24T07:42:21.763Z,1006.81
2018-01-24T07:43:23.181Z,1006.85
2018-01-24T07:44:24.601Z,1006.85
2018-01-24T07:45:26.012Z,1006.92
2018-01-24T07:46:27.430Z,1006.92
2018-01-24T07:47:28.837Z,1006.86
2018-01-24T07:48:30.409Z,1006.87
2018-01-24T07:49:31.829Z,1006.80
2018-01-24T07:50:33.263Z,1006.79
2018-01-24T07:51:34.676Z,1006.79
2018-01-24T07:52:36.102Z,1006.79
2018-01-24T07:53:37.522Z,1006.80
2018-01-24T07:54:38.945Z,1006.74
2018-01-24T07:55:40.365Z,1006.76
2018-01-24T07:56:41.793Z,1006.75
2018-01-24T07:57:43.214Z,1006.75
2018-01-24T07:58:44.628Z,1006.62
2018-01-24T07:59:46.057Z,1006.68
2018-01-24T08:00:47.484Z,1006.70
2018-01-24T08:01:48.917Z,1006.66
2018-01-24T08:02:50.336Z,1006.66
2018-01-24T08:03:51.758Z,1006.65
2018-01-24T08:04:53.172Z,1006.67
2018-01-24T08:05:54.604Z,1006.63
2018-01-24T08:06:56.026Z,1006.66
2018-01-24T08:07:57.445Z,1006.69
2018-01-24T08:08:58.886Z,1006.65
2018-01-24T08:10:00.394Z,1006.71
2018-01-24T08:11:01.828Z,1006.65
2018-01-24T08:12:03.247Z,1006.68
2018-01-24T08:13:04.666Z,1006.61
2018-01-24T08:14:06.080Z,1006.64
2018-01-24T08:15:07.493Z,1006.63
2018-01-24T08:16:08.982Z,1006.71
2018-01-24T08:17:10.402Z,1006.59
2018-01-24T08:18:11.893Z,1006.67
2018-01-24T08:19:13.311Z,1006.70
2018-01-24T08:20:14.726Z,1006.67
2018-01-24T08:21:16.150Z,1006.66
2018-01-24T08:22:17.562Z,1006.67
2018-01-24T08:23:18.992Z,1006.64
2018-01-24T08:24:20.409Z,1006.75
2018-01-24T08:25:21.830Z,1006.69
2018-01-24T08:26:23.242Z,1006.68
2018-01-24T08:27:24.672Z,1006.69
2018-01-24T08:28:26.090Z,1006.70
2018-01-24T08:29:27.513Z,1006.72
2018-01-24T08:30:28.999Z,1006.69
2018-01-24T08:31:30.421Z,1006.66
2018-01-24T08:32:31.843Z,1006.67
2018-01-24T08:33:33.278Z,1006.76
2018-01-24T08:34:34.694Z,1006.71
2018-01-24T08:35:36.120Z,1006.69
2018-01-24T08:36:37.543Z,1006.73
2018-01-24T08:37:38.956Z,1006.74
2018-01-24T08:38:40.388Z,1006.69
2018-01-24T08:39:41.803Z,1006.71
2018-01-24T08:40:43.232Z,1006.65
2018-01-24T08:41:44.657Z,1006.72
2018-01-24T08:42:46.094Z,1006.77
2018-01-24T08:43:47.589Z,1006.68
2018-01-24T08:44:48.996Z,1006.69
2018-01-24T08:45:50.438Z,1006.75
2018-01-24T08:46:51.899Z,1006.58
2018-01-24T08:47:53.287Z,1006.67
2018-01-24T08:48:54.710Z,1006.68
2018-01-24T08:49:56.130Z,1006.65
2018-01-24T08:50:57.562Z,1006.64
2018-01-24T08:51:58.981Z,1006.61
2018-01-24T08:53:00.412Z,1006.59
2018-01-24T08:54:01.841Z,1006.63
2018-01-24T08:55:03.266Z,1006.57
2018-01-24T08:56:04.724Z,1006.59
2018-01-24T08:57:06.143Z,1006.53
2018-01-24T08:58:07.641Z,1006.54
2018-01-24T08:59:09.065Z,1006.48
2018-01-24T09:00:10.500Z,1006.48
2018-01-24T09:01:11.922Z,1006.47
2018-01-24T09:02:13.343Z,1006.44
2018-01-24T09:03:14.776Z,1006.45
2018-01-24T09:04:16.191Z,1006.39
2018-01-24T09:05:17.621Z,1006.43
2018-01-24T09:06:19.038Z,1006.40
2018-01-24T09:07:20.465Z,1006.45
2018-01-24T09:08:21.882Z,1006.41
2018-01-24T09:09:23.295Z,1006.39
2018-01-24T09:10:24.714Z,1006.39
2018-01-24T09:11:26.243Z,1006.35
2018-01-24T09:12:27.663Z,1006.34
2018-01-24T09:13:29.093Z,1006.40
2018-01-24T09:14:30.515Z,1006.39
2018-01-24T09:15:31.930Z,1006.32
2018-01-24T09:19:57.514Z,1006.39
2018-01-24T09:20:58.932Z,1006.39
2018-01-24T09:22:00.360Z,1006.34
2018-01-24T09:23:01.784Z,1006.30
2018-01-24T09:23:44.386Z,1006.28
2018-01-24T09:24:11.814Z,1006.27
2018-01-24T09:25:13.236Z,1006.31
2018-01-24T09:26:14.659Z,1006.31
2018-01-24T09:27:16.093Z,1006.25
2018-01-24T09:28:17.503Z,1006.27
2018-01-24T09:29:18.917Z,1006.29
2018-01-24T09:36:54.083Z,1006.18
2018-01-24T09:51:05.028Z,1006.14
2018-01-24T09:52:06.381Z,1006.06
2018-01-24T09:53:58.502Z,1006.15
2018-01-24T09:54:58.576Z,1006.17
2018-01-24T10:00:41.137Z,1006.06
2018-01-24T10:02:32.778Z,1005.86
2018-01-24T10:03:32.756Z,1005.84
2018-01-24T10:05:25.751Z,1005.86
2018-01-24T10:06:25.702Z,1005.98
2018-01-24T10:12:22.390Z,1005.84
2018-01-24T10:13:30.276Z,1005.82
2018-01-24T10:14:30.234Z,1005.71
2018-01-24T10:16:23.154Z,1005.71
2018-01-24T10:17:23.085Z,1005.67
2018-01-24T10:19:16.064Z,1005.67
2018-01-24T10:21:22.666Z,1005.63
2018-01-24T10:22:22.615Z,1005.62
2018-01-24T10:24:15.587Z,1005.46
2018-01-24T10:25:15.564Z,1005.51
2018-01-24T10:27:09.070Z,1005.47
2018-01-24T10:28:09.032Z,1005.50
2018-01-24T10:30:02.032Z,1005.53
2018-01-24T10:31:01.995Z,1005.54
2018-01-24T10:32:52.256Z,1005.48
2018-01-24T10:33:57.742Z,1005.42
2018-01-24T10:35:57.356Z,1005.40
2018-01-24T10:37:02.855Z,1005.47
2018-01-24T10:40:01.609Z,1005.37
2018-01-24T10:41:07.079Z,1005.29
2018-01-24T10:43:05.604Z,1005.32
2018-01-24T10:44:11.092Z,1005.35
2018-01-24T10:45:19.227Z,1005.31
2018-01-24T14:36:07.731Z,1001.83
2018-01-24T14:37:13.210Z,1001.88
2018-01-24T14:39:12.533Z,1001.80
2018-01-24T14:40:18.044Z,1001.73
2018-01-24T14:42:16.121Z,1001.85
2018-01-24T14:43:21.556Z,1001.80
2018-01-24T14:45:20.060Z,1001.81
2018-01-24T14:46:25.706Z,1001.82
2018-01-24T14:48:24.097Z,1001.76
2018-01-24T14:49:29.581Z,1001.70
2018-01-24T14:51:28.112Z,1001.87
2018-01-24T14:52:33.597Z,1001.78
2018-01-24T14:54:32.129Z,1001.92
2018-01-24T14:55:37.614Z,1001.82
2018-01-24T14:57:36.255Z,1001.87
2018-01-24T14:58:41.632Z,1001.87
2018-01-24T15:00:40.140Z,1001.88
2018-01-24T15:01:45.655Z,1001.90
2018-01-24T15:03:44.171Z,1001.82
2018-01-24T15:04:49.665Z,1001.96
2018-01-24T15:06:48.165Z,1001.91
2018-01-24T15:07:53.682Z,1001.88
2018-01-24T15:09:52.202Z,1001.94
2018-01-24T15:10:57.686Z,1001.93
2018-01-24T15:12:56.195Z,1001.98
2018-01-24T15:14:01.709Z,1001.93
2018-01-24T15:16:00.257Z,1002.07
2018-01-24T15:17:05.742Z,1002.05
2018-01-24T15:19:04.224Z,1002.02
2018-01-24T15:20:09.735Z,1002.00
2018-01-24T15:22:08.260Z,1002.01
2018-01-24T15:23:13.740Z,1002.14
2018-01-24T15:25:12.263Z,1002.11
2018-01-24T15:26:17.761Z,1002.12
2018-01-24T15:28:16.279Z,1002.13
2018-01-24T15:29:21.778Z,1002.06
2018-01-24T15:31:20.348Z,1002.06
2018-01-24T15:32:25.795Z,1002.07
2018-01-24T15:34:24.860Z,1002.07
2018-01-24T15:35:30.315Z,1002.07
2018-01-24T15:37:28.835Z,1001.93
2018-01-24T15:38:34.338Z,1001.96
2018-01-24T15:40:32.883Z,1001.94
2018-01-24T15:41:38.358Z,1001.85
2018-01-24T15:43:36.852Z,1001.90
2018-01-24T15:44:42.360Z,1001.95
2018-01-24T15:46:40.902Z,1001.97
2018-01-24T15:47:46.373Z,1001.96
2018-01-24T15:49:44.884Z,1001.98
2018-01-24T15:50:50.390Z,1002.05
2018-01-24T15:52:48.921Z,1001.94
2018-01-24T15:53:54.403Z,1002.03
2018-01-24T15:55:52.932Z,1001.89
2018-01-24T15:56:58.427Z,1001.98
2018-01-24T15:58:56.962Z,1001.84
2018-01-24T16:00:02.439Z,1001.87
2018-01-24T16:02:00.961Z,1001.86
2018-01-24T16:03:06.449Z,1001.84
2018-01-24T16:05:06.375Z,1001.71
2018-01-24T16:06:11.914Z,1001.76
2018-01-24T16:08:11.625Z,1001.71
2018-01-24T16:09:17.054Z,1001.64
2018-01-24T16:11:15.625Z,1001.65
2018-01-24T16:12:21.081Z,1001.62
2018-01-24T16:14:19.582Z,1001.63
2018-01-24T16:15:25.076Z,1001.62
2018-01-24T16:17:23.597Z,1001.60
2018-01-24T16:18:29.099Z,1001.65
2018-01-24T16:20:27.603Z,1001.58
2018-01-24T16:21:33.105Z,1001.53
2018-01-24T16:23:31.736Z,1001.59
2018-01-24T16:24:37.156Z,1001.63
2018-01-24T16:26:36.048Z,1001.61
2018-01-24T16:27:41.549Z,1001.59
2018-01-24T16:29:40.078Z,1001.57
2018-01-24T16:30:45.576Z,1001.62
2018-01-24T16:31:51.113Z,1001.61
2018-01-24T16:32:56.601Z,1001.51
2018-01-24T16:34:02.293Z,1001.53
2018-01-24T16:35:07.652Z,1001.55
2018-01-24T16:36:13.140Z,1001.51
2018-01-24T16:37:18.802Z,1001.59
2018-01-24T16:38:24.182Z,1001.54
2018-01-24T16:39:29.678Z,1001.62
2018-01-24T16:40:35.193Z,1001.57
2018-01-24T16:41:40.765Z,1001.58
2018-01-24T16:42:46.225Z,1001.62
2018-01-24T16:43:51.738Z,1001.60
2018-01-24T16:44:57.278Z,1001.51
2018-01-24T16:46:02.774Z,1001.59
2018-01-24T16:47:08.282Z,1001.63
2018-01-24T16:48:13.787Z,1001.56
2018-01-24T16:49:19.327Z,1001.64
2018-01-24T16:50:24.821Z,1001.50
2018-01-24T16:51:30.342Z,1001.52
2018-01-24T16:52:35.868Z,1001.48
2018-01-24T16:53:41.402Z,1001.50
2018-01-24T16:54:46.884Z,1001.52
2018-01-24T16:55:52.406Z,1001.59
2018-01-24T16:56:57.962Z,1001.57
2018-01-24T16:58:03.590Z,1001.56
2018-01-24T16:59:09.014Z,1001.50
2018-01-24T17:00:14.452Z,1001.55
2018-01-24T17:01:20.019Z,1001.57
2018-01-24T17:02:25.510Z,1001.52
2018-01-24T17:03:31.162Z,1001.52
2018-01-24T17:04:37.044Z,1001.59
2018-01-24T17:05:42.030Z,1001.54
2018-01-24T17:06:47.609Z,1001.61
2018-01-24T17:07:53.118Z,1001.57
2018-01-24T17:08:58.606Z,1001.50
2018-01-24T17:10:04.233Z,1001.39
2018-01-24T17:11:09.634Z,1001.52
2018-01-24T17:12:15.117Z,1001.43
2018-01-24T17:13:20.664Z,1001.43
2018-01-24T17:14:26.183Z,1001.49
2018-01-24T17:15:31.663Z,1001.39
2018-01-24T17:16:37.178Z,1001.31
2018-01-24T17:17:42.683Z,1001.40
2018-01-24T17:18:48.183Z,1001.49
2018-01-24T17:19:53.702Z,1001.44
2018-01-24T17:20:59.222Z,1001.39
2018-01-24T17:22:04.728Z,1001.40
2018-01-24T17:23:10.237Z,1001.44
2018-01-24T17:24:15.763Z,1001.44
2018-01-24T17:25:21.273Z,1001.44
2018-01-24T17:26:26.799Z,1001.48
2018-01-24T17:27:32.292Z,1001.44
2018-01-24T17:28:37.817Z,1001.42
2018-01-24T17:29:43.330Z,1001.44
2018-01-24T17:30:48.850Z,1001.38
2018-01-24T17:31:54.373Z,1001.49
2018-01-24T17:32:59.868Z,1001.41
2018-01-24T17:34:05.377Z,1001.37
2018-01-24T17:35:10.899Z,1001.32
2018-01-24T17:36:16.404Z,1001.38
2018-01-24T17:37:21.923Z,1001.43
2018-01-24T17:38:27.437Z,1001.37
2018-01-24T17:39:32.962Z,1001.29